CDT,Max TemperatureF,Mean TemperatureF,Min TemperatureF,Max Dew PointF,MeanDew PointF,Min DewpointF,Max Humidity, Mean Humidity, Min Humidity, Max Sea Level PressureIn, Mean Sea Level PressureIn, Min Sea Level PressureIn, Max VisibilityMiles, Mean VisibilityMiles, Min VisibilityMiles, Max Wind SpeedMPH, Mean Wind SpeedMPH, Max Gust SpeedMPH,PrecipitationIn, CloudCover, Events, WindDirDegrees
2011-10-1,62,52,42,37,35,32,70,53,36,30.27,30.20,30.10,10,10,10,14,7,24,0.00,1,,346
2011-10-2,68,52,35,37,33,27,71,56,26,30.30,30.24,30.18,10,10,10,12,5,16,0.00,0,,323
2011-10-3,75,57,39,41,36,30,71,52,25,30.27,30.21,30.18,10,10,10,14,4,17,0.00,0,,277
2011-10-4,80,61,42,48,41,34,76,55,28,30.32,30.26,30.22,10,10,10,7,2,,0.00,0,,276
2011-10-5,80,62,44,52,44,36,77,56,30,30.30,30.25,30.18,10,9,2,9,1,,0.00,0,,61
2011-10-6,86,67,48,55,48,39,82,57,31,30.28,30.23,30.20,10,10,7,8,2,,0.00,0,,118
2011-10-7,84,67,50,55,50,43,77,57,37,30.37,30.30,30.26,10,10,7,10,2,,0.00,0,,159
2011-10-8,80,66,51,54,49,43,77,56,36,30.40,30.33,30.29,10,9,2,16,2,17,0.00,0,,159
2011-10-9,80,62,44,52,45,36,76,54,32,30.36,30.28,30.19,10,10,10,13,2,16,0.00,0,,78
2011-10-10,78,64,51,54,49,43,77,59,41,30.22,30.14,30.05,10,9,2,10,2,,0.00,2,,88
2011-10-11,78,63,48,55,50,43,82,60,39,30.03,29.97,29.90,10,7,0,9,2,,0.00,0,,80
2011-10-12,77,64,51,57,52,45,82,68,47,29.91,29.83,29.72,10,7,0,16,3,16,0.20,5,,157
2011-10-13,66,63,60,55,53,48,77,71,60,29.69,29.63,29.60,10,10,3,20,7,28,0.51,7,Thunderstorm,253
2011-10-14,71,60,48,43,40,36,66,48,29,29.90,29.80,29.71,10,10,10,25,10,31,0.00,1,,271
2011-10-15,68,55,42,39,35,30,66,48,33,30.10,30.04,29.95,10,10,10,16,9,22,0.00,0,,258
2011-10-16,84,67,50,54,43,34,58,45,33,30.06,29.95,29.83,10,10,10,26,11,34,0.00,0,,223
2011-10-17,68,57,48,39,36,32,66,46,30,30.02,29.96,29.87,10,10,5,12,4,17,0.00,3,,9
2011-10-18,53,50,46,37,36,34,71,64,47,29.89,29.81,29.76,10,9,1,14,10,23,0.07,7,,3
2011-10-19,46,44,42,37,36,34,76,70,66,29.71,29.64,29.58,10,10,5,24,11,33,0.40,8,,315
2011-10-20,55,48,42,34,33,30,70,57,41,30.03,29.81,29.66,10,10,10,23,17,33,0.05,7,,281
2011-10-21,60,48,35,34,30,25,70,56,34,30.17,30.13,30.04,10,10,10,15,6,17,0.00,0,,262
2011-10-22,69,50,32,39,33,23,75,55,31,30.20,30.14,30.08,10,10,10,10,2,,0.00,0,,215
2011-10-23,68,55,42,45,40,32,71,58,43,30.10,30.07,30.03,10,10,7,12,3,,0.00,0,,214
2011-10-24,73,58,42,48,40,34,71,53,25,30.22,30.13,30.07,10,10,10,15,8,23,0.00,0,,265
2011-10-25,78,58,39,48,40,30,70,49,34,30.22,30.11,29.94,10,10,10,21,6,25,0.00,0,,190
2011-10-26,69,61,53,55,49,45,77,63,52,29.96,29.91,29.86,10,10,5,18,11,23,0.66,6,Thunderstorm,243
2011-10-27,51,48,46,43,38,34,76,65,54,30.16,30.01,29.88,10,10,7,13,8,17,0.23,7,,351
2011-10-28,53,48,42,34,32,28,70,58,41,30.20,30.16,30.12,10,10,10,12,7,,0.00,3,,33
2011-10-29,60,46,33,36,28,25,75,53,25,30.19,30.15,30.12,10,10,10,15,4,22,0.00,0,,278
2011-10-30,62,48,33,34,30,25,70,50,32,30.26,30.18,30.09,10,10,10,18,5,28,0.00,1,,185
2011-10-31,62,48,35,36,30,25,70,48,27,30.21,30.13,30.09,10,10,10,17,8,24,0.00,1,,243